sensor_id;sensor_type;location;lat;lon;timestamp;temperature;humidity
12470;DHT22;36499;46.484;13.832;2023-03-11T00:00:39;4.10;99.90
12470;DHT22;36499;46.484;13.832;2023-03-11T00:03:11;4.10;99.90
12470;DHT22;36499;46.484;13.832;2023-03-11T00:05:41;4.10;99.90
12470;DHT22;36499;46.484;13.832;2023-03-11T00:08:14;4.00;99.90
12470;DHT22;36499;46.484;13.832;2023-03-11T00:10:43;4.00;99.90
12470;DHT22;36499;46.484;13.832;2023-03-11T00:13:15;3.90;99.90
12470;DHT22;36499;46.484;13.832;2023-03-11T00:15:43;3.90;99.90
12470;DHT22;36499;46.484;13.832;2023-03-11T00:18:11;3.90;99.90
12470;DHT22;36499;46.484;13.832;2023-03-11T00:20:42;3.80;99.90
12470;DHT22;36499;46.484;13.832;2023-03-11T00:23:12;3.70;99.90
12470;DHT22;36499;46.484;13.832;2023-03-11T00:25:42;3.60;99.90
12470;DHT22;36499;46.484;13.832;2023-03-11T00:28:10;3.70;99.90
12470;DHT22;36499;46.484;13.832;2023-03-11T00:30:42;3.70;99.90
12470;DHT22;36499;46.484;13.832;2023-03-11T00:33:11;3.60;99.90
12470;DHT22;36499;46.484;13.832;2023-03-11T00:35:39;3.50;99.90
12470;DHT22;36499;46.484;13.832;2023-03-11T00:38:09;3.50;99.90
12470;DHT22;36499;46.484;13.832;2023-03-11T00:40:38;3.40;99.90
12470;DHT22;36499;46.484;13.832;2023-03-11T00:43:05;3.50;99.90
12470;DHT22;36499;46.484;13.832;2023-03-11T00:45:34;3.40;99.90
12470;DHT22;36499;46.484;13.832;2023-03-11T00:48:01;3.30;99.90
12470;DHT22;36499;46.484;13.832;2023-03-11T00:50:30;3.30;99.90
12470;DHT22;36499;46.484;13.832;2023-03-11T00:52:59;3.30;99.90
12470;DHT22;36499;46.484;13.832;2023-03-11T00:55:29;3.30;99.90
12470;DHT22;36499;46.484;13.832;2023-03-11T00:58:00;3.30;99.90
12470;DHT22;36499;46.484;13.832;2023-03-11T01:00:29;3.30;99.90
12470;DHT22;36499;46.484;13.832;2023-03-11T01:02:58;3.20;99.90
12470;DHT22;36499;46.484;13.832;2023-03-11T01:05:28;3.10;99.90
12470;DHT22;36499;46.484;13.832;2023-03-11T01:07:57;3.00;99.90
12470;DHT22;36499;46.484;13.832;2023-03-11T01:10:25;3.10;99.90
12470;DHT22;36499;46.484;13.832;2023-03-11T01:12:52;3.10;99.90
12470;DHT22;36499;46.484;13.832;2023-03-11T01:15:24;3.00;99.90
12470;DHT22;36499;46.484;13.832;2023-03-11T01:17:52;3.00;99.90
12470;DHT22;36499;46.484;13.832;2023-03-11T01:20:21;3.00;99.90
12470;DHT22;36499;46.484;13.832;2023-03-11T01:22:48;3.00;99.90
12470;DHT22;36499;46.484;13.832;2023-03-11T01:25:17;2.90;99.90
12470;DHT22;36499;46.484;13.832;2023-03-11T01:27:46;2.90;99.90
12470;DHT22;36499;46.484;13.832;2023-03-11T01:30:15;2.90;99.90
12470;DHT22;36499;46.484;13.832;2023-03-11T01:32:44;2.90;99.90
12470;DHT22;36499;46.484;13.832;2023-03-11T01:35:12;2.80;99.90
12470;DHT22;36499;46.484;13.832;2023-03-11T01:37:43;2.80;99.90
12470;DHT22;36499;46.484;13.832;2023-03-11T01:40:14;2.80;99.90
12470;DHT22;36499;46.484;13.832;2023-03-11T01:42:44;2.80;99.90
12470;DHT22;36499;46.484;13.832;2023-03-11T01:45:30;2.80;99.90
12470;DHT22;36499;46.484;13.832;2023-03-11T01:48:04;2.70;99.90
12470;DHT22;36499;46.484;13.832;2023-03-11T01:50:34;2.70;99.90
12470;DHT22;36499;46.484;13.832;2023-03-11T01:53:06;2.70;99.90
12470;DHT22;36499;46.484;13.832;2023-03-11T01:55:35;2.60;99.90
12470;DHT22;36499;46.484;13.832;2023-03-11T01:58:06;2.60;99.90
12470;DHT22;36499;46.484;13.832;2023-03-11T02:00:36;2.60;99.90
12470;DHT22;36499;46.484;13.832;2023-03-11T02:03:08;2.60;99.90
12470;DHT22;36499;46.484;13.832;2023-03-11T02:05:39;2.60;99.90
12470;DHT22;36499;46.484;13.832;2023-03-11T02:08:08;2.50;99.90
12470;DHT22;36499;46.484;13.832;2023-03-11T02:10:37;2.50;99.90
12470;DHT22;36499;46.484;13.832;2023-03-11T02:13:06;2.50;99.90
12470;DHT22;36499;46.484;13.832;2023-03-11T02:15:35;2.50;99.90
12470;DHT22;36499;46.484;13.832;2023-03-11T02:18:04;2.40;99.90
12470;DHT22;36499;46.484;13.832;2023-03-11T02:20:39;2.40;99.90
12470;DHT22;36499;46.484;13.832;2023-03-11T02:23:15;2.40;99.90
12470;DHT22;36499;46.484;13.832;2023-03-11T02:25:49;2.40;99.90
12470;DHT22;36499;46.484;13.832;2023-03-11T02:28:23;2.40;99.90
12470;DHT22;36499;46.484;13.832;2023-03-11T02:30:52;2.30;99.90
12470;DHT22;36499;46.484;13.832;2023-03-11T02:33:23;2.40;99.90
12470;DHT22;36499;46.484;13.832;2023-03-11T02:35:55;2.30;99.90
12470;DHT22;36499;46.484;13.832;2023-03-11T02:38:22;2.40;99.90
12470;DHT22;36499;46.484;13.832;2023-03-11T02:40:52;2.30;99.90
12470;DHT22;36499;46.484;13.832;2023-03-11T02:43:32;2.30;99.90
12470;DHT22;36499;46.484;13.832;2023-03-11T02:46:04;2.20;99.90
12470;DHT22;36499;46.484;13.832;2023-03-11T02:48:35;2.20;99.90
12470;DHT22;36499;46.484;13.832;2023-03-11T02:51:04;2.10;99.90
12470;DHT22;36499;46.484;13.832;2023-03-11T02:53:34;2.10;99.90
12470;DHT22;36499;46.484;13.832;2023-03-11T02:56:05;2.10;99.90
12470;DHT22;36499;46.484;13.832;2023-03-11T02:58:33;2.10;99.90
12470;DHT22;36499;46.484;13.832;2023-03-11T03:01:00;2.00;99.90
12470;DHT22;36499;46.484;13.832;2023-03-11T03:03:28;2.10;99.90
12470;DHT22;36499;46.484;13.832;2023-03-11T03:05:55;2.10;99.90
12470;DHT22;36499;46.484;13.832;2023-03-11T03:08:22;2.10;99.90
12470;DHT22;36499;46.484;13.832;2023-03-11T03:10:49;2.00;99.90
12470;DHT22;36499;46.484;13.832;2023-03-11T03:13:16;2.10;99.90
12470;DHT22;36499;46.484;13.832;2023-03-11T03:15:45;2.10;99.90
12470;DHT22;36499;46.484;13.832;2023-03-11T03:18:12;2.10;99.90
12470;DHT22;36499;46.484;13.832;2023-03-11T03:20:39;2.10;99.90
12470;DHT22;36499;46.484;13.832;2023-03-11T03:23:06;2.10;99.90
12470;DHT22;36499;46.484;13.832;2023-03-11T03:25:33;2.10;99.90
12470;DHT22;36499;46.484;13.832;2023-03-11T03:28:00;2.10;99.90
12470;DHT22;36499;46.484;13.832;2023-03-11T03:30:27;2.20;99.90
12470;DHT22;36499;46.484;13.832;2023-03-11T03:32:55;2.20;99.90
12470;DHT22;36499;46.484;13.832;2023-03-11T03:35:23;2.20;99.90
12470;DHT22;36499;46.484;13.832;2023-03-11T03:37:50;2.20;99.90
12470;DHT22;36499;46.484;13.832;2023-03-11T03:40:17;2.10;99.90
12470;DHT22;36499;46.484;13.832;2023-03-11T03:42:44;2.10;99.90
12470;DHT22;36499;46.484;13.832;2023-03-11T03:45:11;2.10;99.90
12470;DHT22;36499;46.484;13.832;2023-03-11T03:47:38;2.10;99.90
12470;DHT22;36499;46.484;13.832;2023-03-11T03:50:09;2.10;99.90
12470;DHT22;36499;46.484;13.832;2023-03-11T03:52:38;2.10;99.90
12470;DHT22;36499;46.484;13.832;2023-03-11T03:55:05;2.10;99.90
12470;DHT22;36499;46.484;13.832;2023-03-11T03:57:33;2.10;99.90
12470;DHT22;36499;46.484;13.832;2023-03-11T04:00:00;2.20;99.90
12470;DHT22;36499;46.484;13.832;2023-03-11T04:02:29;2.20;99.90
12470;DHT22;36499;46.484;13.832;2023-03-11T04:04:56;2.10;99.90
12470;DHT22;36499;46.484;13.832;2023-03-11T04:07:25;2.10;99.90
12470;DHT22;36499;46.484;13.832;2023-03-11T04:09:52;2.10;99.90
12470;DHT22;36499;46.484;13.832;2023-03-11T04:12:19;2.10;99.90
12470;DHT22;36499;46.484;13.832;2023-03-11T04:14:46;2.00;99.90
12470;DHT22;36499;46.484;13.832;2023-03-11T04:17:13;2.00;99.90
12470;DHT22;36499;46.484;13.832;2023-03-11T04:19:42;2.00;99.90
12470;DHT22;36499;46.484;13.832;2023-03-11T04:22:09;2.00;99.90
12470;DHT22;36499;46.484;13.832;2023-03-11T04:24:37;1.90;99.90
12470;DHT22;36499;46.484;13.832;2023-03-11T04:27:04;2.00;99.90
12470;DHT22;36499;46.484;13.832;2023-03-11T04:29:31;1.90;99.90
12470;DHT22;36499;46.484;13.832;2023-03-11T04:31:58;1.90;99.90
12470;DHT22;36499;46.484;13.832;2023-03-11T04:34:25;2.00;99.90
12470;DHT22;36499;46.484;13.832;2023-03-11T04:36:53;2.00;99.90
12470;DHT22;36499;46.484;13.832;2023-03-11T04:39:20;2.10;99.90
12470;DHT22;36499;46.484;13.832;2023-03-11T04:41:49;2.10;99.90
12470;DHT22;36499;46.484;13.832;2023-03-11T04:44:16;2.10;99.90
12470;DHT22;36499;46.484;13.832;2023-03-11T04:46:43;2.10;99.90
12470;DHT22;36499;46.484;13.832;2023-03-11T04:49:10;2.10;99.90
12470;DHT22;36499;46.484;13.832;2023-03-11T04:51:37;2.10;99.90
12470;DHT22;36499;46.484;13.832;2023-03-11T04:54:04;2.10;99.90
12470;DHT22;36499;46.484;13.832;2023-03-11T04:56:32;2.10;99.90
12470;DHT22;36499;46.484;13.832;2023-03-11T04:59:00;2.00;99.90
12470;DHT22;36499;46.484;13.832;2023-03-11T05:01:27;1.90;99.90
12470;DHT22;36499;46.484;13.832;2023-03-11T05:03:54;1.90;99.90
12470;DHT22;36499;46.484;13.832;2023-03-11T05:06:21;1.80;99.90
12470;DHT22;36499;46.484;13.832;2023-03-11T05:08:48;1.70;99.90
12470;DHT22;36499;46.484;13.832;2023-03-11T05:11:15;1.70;99.90
12470;DHT22;36499;46.484;13.832;2023-03-11T05:13:42;1.70;99.90
12470;DHT22;36499;46.484;13.832;2023-03-11T05:16:11;1.70;99.90
12470;DHT22;36499;46.484;13.832;2023-03-11T05:18:38;1.60;99.90
12470;DHT22;36499;46.484;13.832;2023-03-11T05:21:05;1.60;99.90
12470;DHT22;36499;46.484;13.832;2023-03-11T05:23:32;1.50;99.90
12470;DHT22;36499;46.484;13.832;2023-03-11T05:25:59;1.50;99.90
12470;DHT22;36499;46.484;13.832;2023-03-11T05:28:26;1.60;99.90
12470;DHT22;36499;46.484;13.832;2023-03-11T05:30:53;1.60;99.90
12470;DHT22;36499;46.484;13.832;2023-03-11T05:33:21;1.50;99.90
12470;DHT22;36499;46.484;13.832;2023-03-11T05:35:49;1.60;99.90
12470;DHT22;36499;46.484;13.832;2023-03-11T05:38:17;1.60;99.90
12470;DHT22;36499;46.484;13.832;2023-03-11T05:40:44;1.60;99.90
12470;DHT22;36499;46.484;13.832;2023-03-11T05:43:11;1.70;99.90
12470;DHT22;36499;46.484;13.832;2023-03-11T05:45:38;1.70;99.90
12470;DHT22;36499;46.484;13.832;2023-03-11T05:48:05;1.70;99.90
12470;DHT22;36499;46.484;13.832;2023-03-11T05:50:34;1.70;99.90
12470;DHT22;36499;46.484;13.832;2023-03-11T05:53:01;1.70;99.90
12470;DHT22;36499;46.484;13.832;2023-03-11T05:55:28;1.70;99.90
12470;DHT22;36499;46.484;13.832;2023-03-11T05:57:55;1.70;99.90
12470;DHT22;36499;46.484;13.832;2023-03-11T06:00:22;1.70;99.90
12470;DHT22;36499;46.484;13.832;2023-03-11T06:02:49;1.70;99.90
12470;DHT22;36499;46.484;13.832;2023-03-11T06:05:16;1.90;99.90
12470;DHT22;36499;46.484;13.832;2023-03-11T06:07:44;1.90;99.90
12470;DHT22;36499;46.484;13.832;2023-03-11T06:10:12;2.00;99.90
12470;DHT22;36499;46.484;13.832;2023-03-11T06:12:39;2.00;99.90
12470;DHT22;36499;46.484;13.832;2023-03-11T06:15:08;2.00;99.90
12470;DHT22;36499;46.484;13.832;2023-03-11T06:17:35;2.10;99.90
12470;DHT22;36499;46.484;13.832;2023-03-11T06:20:02;2.20;99.90
12470;DHT22;36499;46.484;13.832;2023-03-11T06:22:33;2.30;99.90
12470;DHT22;36499;46.484;13.832;2023-03-11T06:25:01;2.40;99.90
12470;DHT22;36499;46.484;13.832;2023-03-11T06:27:28;2.40;99.90
12470;DHT22;36499;46.484;13.832;2023-03-11T06:29:55;2.40;99.90
12470;DHT22;36499;46.484;13.832;2023-03-11T06:32:22;2.50;99.90
12470;DHT22;36499;46.484;13.832;2023-03-11T06:34:50;2.50;99.90
12470;DHT22;36499;46.484;13.832;2023-03-11T06:37:18;2.60;99.90
12470;DHT22;36499;46.484;13.832;2023-03-11T06:39:46;2.50;99.90
12470;DHT22;36499;46.484;13.832;2023-03-11T06:42:14;2.60;99.90
12470;DHT22;36499;46.484;13.832;2023-03-11T06:44:41;2.60;99.90
12470;DHT22;36499;46.484;13.832;2023-03-11T06:47:08;2.70;99.90
12470;DHT22;36499;46.484;13.832;2023-03-11T06:49:35;2.80;99.90
12470;DHT22;36499;46.484;13.832;2023-03-11T06:52:05;2.90;99.90
12470;DHT22;36499;46.484;13.832;2023-03-11T06:54:33;3.00;99.90
12470;DHT22;36499;46.484;13.832;2023-03-11T06:57:00;3.10;99.90
12470;DHT22;36499;46.484;13.832;2023-03-11T06:59:29;3.20;99.90
12470;DHT22;36499;46.484;13.832;2023-03-11T07:01:57;3.20;99.90
12470;DHT22;36499;46.484;13.832;2023-03-11T07:04:24;3.20;99.90
12470;DHT22;36499;46.484;13.832;2023-03-11T07:06:51;3.30;99.90
12470;DHT22;36499;46.484;13.832;2023-03-11T07:09:18;3.30;99.90
12470;DHT22;36499;46.484;13.832;2023-03-11T07:11:46;3.40;99.90
12470;DHT22;36499;46.484;13.832;2023-03-11T07:14:14;3.50;99.90
12470;DHT22;36499;46.484;13.832;2023-03-11T07:16:43;3.60;99.90
12470;DHT22;36499;46.484;13.832;2023-03-11T07:19:11;3.60;99.90
12470;DHT22;36499;46.484;13.832;2023-03-11T07:21:40;3.70;99.90
12470;DHT22;36499;46.484;13.832;2023-03-11T07:24:11;3.80;99.90
12470;DHT22;36499;46.484;13.832;2023-03-11T07:26:39;3.80;99.90
12470;DHT22;36499;46.484;13.832;2023-03-11T07:29:08;3.90;99.90
12470;DHT22;36499;46.484;13.832;2023-03-11T07:31:36;4.00;99.90
12470;DHT22;36499;46.484;13.832;2023-03-11T07:34:06;4.10;99.90
12470;DHT22;36499;46.484;13.832;2023-03-11T07:36:36;4.20;99.90
12470;DHT22;36499;46.484;13.832;2023-03-11T07:39:05;4.30;99.90
12470;DHT22;36499;46.484;13.832;2023-03-11T07:41:34;4.40;99.90
12470;DHT22;36499;46.484;13.832;2023-03-11T07:44:02;4.50;99.90
12470;DHT22;36499;46.484;13.832;2023-03-11T07:46:30;4.70;99.90
12470;DHT22;36499;46.484;13.832;2023-03-11T07:48:59;4.80;99.90
12470;DHT22;36499;46.484;13.832;2023-03-11T07:51:29;4.90;99.90
12470;DHT22;36499;46.484;13.832;2023-03-11T07:53:58;5.00;99.90
12470;DHT22;36499;46.484;13.832;2023-03-11T07:56:28;5.00;99.90
12470;DHT22;36499;46.484;13.832;2023-03-11T07:58:56;5.10;99.90
12470;DHT22;36499;46.484;13.832;2023-03-11T08:01:26;5.20;99.90
12470;DHT22;36499;46.484;13.832;2023-03-11T08:03:55;5.30;99.90
12470;DHT22;36499;46.484;13.832;2023-03-11T08:06:25;5.40;99.90
12470;DHT22;36499;46.484;13.832;2023-03-11T08:08:56;5.50;99.90
12470;DHT22;36499;46.484;13.832;2023-03-11T08:11:23;5.70;99.90
12470;DHT22;36499;46.484;13.832;2023-03-11T08:13:51;5.80;99.90
12470;DHT22;36499;46.484;13.832;2023-03-11T08:16:20;5.90;99.90
12470;DHT22;36499;46.484;13.832;2023-03-11T08:18:49;5.90;99.90
12470;DHT22;36499;46.484;13.832;2023-03-11T08:21:19;6.00;99.90
12470;DHT22;36499;46.484;13.832;2023-03-11T08:23:48;6.00;99.90
12470;DHT22;36499;46.484;13.832;2023-03-11T08:26:18;6.10;99.90
12470;DHT22;36499;46.484;13.832;2023-03-11T08:28:46;6.20;99.90
12470;DHT22;36499;46.484;13.832;2023-03-11T08:31:15;6.30;99.90
12470;DHT22;36499;46.484;13.832;2023-03-11T08:33:44;6.40;99.90
12470;DHT22;36499;46.484;13.832;2023-03-11T08:36:14;6.60;99.90
12470;DHT22;36499;46.484;13.832;2023-03-11T08:38:42;6.70;99.90
12470;DHT22;36499;46.484;13.832;2023-03-11T08:41:10;6.90;99.90
12470;DHT22;36499;46.484;13.832;2023-03-11T08:43:37;7.00;99.90
12470;DHT22;36499;46.484;13.832;2023-03-11T08:46:05;7.10;99.90
12470;DHT22;36499;46.484;13.832;2023-03-11T08:48:33;7.20;99.90
12470;DHT22;36499;46.484;13.832;2023-03-11T08:51:08;7.20;99.90
12470;DHT22;36499;46.484;13.832;2023-03-11T08:53:36;7.40;99.90
12470;DHT22;36499;46.484;13.832;2023-03-11T08:56:04;7.50;99.90
12470;DHT22;36499;46.484;13.832;2023-03-11T08:58:33;7.60;99.90
12470;DHT22;36499;46.484;13.832;2023-03-11T09:01:00;7.70;99.90
12470;DHT22;36499;46.484;13.832;2023-03-11T09:03:30;7.90;99.90
12470;DHT22;36499;46.484;13.832;2023-03-11T09:05:58;8.00;99.90
12470;DHT22;36499;46.484;13.832;2023-03-11T09:08:26;8.10;99.90
12470;DHT22;36499;46.484;13.832;2023-03-11T09:10:54;8.20;99.90
12470;DHT22;36499;46.484;13.832;2023-03-11T09:13:21;8.30;99.90
12470;DHT22;36499;46.484;13.832;2023-03-11T09:15:50;8.40;99.90
12470;DHT22;36499;46.484;13.832;2023-03-11T09:18:18;8.50;99.90
12470;DHT22;36499;46.484;13.832;2023-03-11T09:20:46;8.60;99.90
12470;DHT22;36499;46.484;13.832;2023-03-11T09:23:15;8.80;99.90
12470;DHT22;36499;46.484;13.832;2023-03-11T09:25:43;9.00;99.90
12470;DHT22;36499;46.484;13.832;2023-03-11T09:28:10;9.10;99.90
12470;DHT22;36499;46.484;13.832;2023-03-11T09:30:37;9.20;99.90
12470;DHT22;36499;46.484;13.832;2023-03-11T09:33:06;9.40;99.90
12470;DHT22;36499;46.484;13.832;2023-03-11T09:35:34;9.60;98.50
12470;DHT22;36499;46.484;13.832;2023-03-11T09:38:03;9.80;95.40
12470;DHT22;36499;46.484;13.832;2023-03-11T09:40:41;9.80;94.50
12470;DHT22;36499;46.484;13.832;2023-03-11T09:43:27;10.00;94.50
12470;DHT22;36499;46.484;13.832;2023-03-11T09:46:21;10.10;93.50
12470;DHT22;36499;46.484;13.832;2023-03-11T09:49:08;10.20;90.50
12470;DHT22;36499;46.484;13.832;2023-03-11T09:51:46;10.20;90.00
12470;DHT22;36499;46.484;13.832;2023-03-11T09:54:19;10.40;90.30
12470;DHT22;36499;46.484;13.832;2023-03-11T09:56:47;10.60;88.80
12470;DHT22;36499;46.484;13.832;2023-03-11T09:59:18;10.70;86.80
12470;DHT22;36499;46.484;13.832;2023-03-11T10:01:53;10.80;84.00
12470;DHT22;36499;46.484;13.832;2023-03-11T10:04:25;10.90;84.30
12470;DHT22;36499;46.484;13.832;2023-03-11T10:06:56;10.90;82.20
12470;DHT22;36499;46.484;13.832;2023-03-11T10:09:34;10.90;81.00
12470;DHT22;36499;46.484;13.832;2023-03-11T10:12:19;11.10;79.70
12470;DHT22;36499;46.484;13.832;2023-03-11T10:15:15;11.20;76.20
12470;DHT22;36499;46.484;13.832;2023-03-11T10:18:24;11.30;75.80
12470;DHT22;36499;46.484;13.832;2023-03-11T10:21:30;11.70;74.80
12470;DHT22;36499;46.484;13.832;2023-03-11T10:24:18;12.00;72.00
12470;DHT22;36499;46.484;13.832;2023-03-11T10:27:07;12.20;67.30
12470;DHT22;36499;46.484;13.832;2023-03-11T10:29:47;12.50;70.00
12470;DHT22;36499;46.484;13.832;2023-03-11T10:32:24;12.60;64.80
12470;DHT22;36499;46.484;13.832;2023-03-11T10:35:04;12.70;63.70
12470;DHT22;36499;46.484;13.832;2023-03-11T10:37:46;12.60;59.40
12470;DHT22;36499;46.484;13.832;2023-03-11T10:40:25;12.80;60.10
12470;DHT22;36499;46.484;13.832;2023-03-11T10:42:58;12.80;58.30
12470;DHT22;36499;46.484;13.832;2023-03-11T10:45:33;12.90;60.30
12470;DHT22;36499;46.484;13.832;2023-03-11T10:48:09;13.10;59.80
12470;DHT22;36499;46.484;13.832;2023-03-11T10:50:44;13.20;58.20
12470;DHT22;36499;46.484;13.832;2023-03-11T10:53:17;13.10;57.40
12470;DHT22;36499;46.484;13.832;2023-03-11T10:55:47;13.00;58.80
12470;DHT22;36499;46.484;13.832;2023-03-11T10:58:18;12.90;55.20
12470;DHT22;36499;46.484;13.832;2023-03-11T11:00:59;13.10;57.60
12470;DHT22;36499;46.484;13.832;2023-03-11T11:03:32;13.00;53.60
12470;DHT22;36499;46.484;13.832;2023-03-11T11:06:02;13.00;54.00
12470;DHT22;36499;46.484;13.832;2023-03-11T11:08:32;13.20;53.40
12470;DHT22;36499;46.484;13.832;2023-03-11T11:11:01;13.40;51.80
12470;DHT22;36499;46.484;13.832;2023-03-11T11:13:31;13.60;55.00
12470;DHT22;36499;46.484;13.832;2023-03-11T11:16:01;13.70;52.90
12470;DHT22;36499;46.484;13.832;2023-03-11T11:18:32;13.80;51.80
12470;DHT22;36499;46.484;13.832;2023-03-11T11:21:04;13.70;50.80
12470;DHT22;36499;46.484;13.832;2023-03-11T11:23:40;13.50;49.90
12470;DHT22;36499;46.484;13.832;2023-03-11T11:26:15;13.30;49.10
12470;DHT22;36499;46.484;13.832;2023-03-11T11:28:44;13.30;51.30
12470;DHT22;36499;46.484;13.832;2023-03-11T11:31:23;13.70;52.10
12470;DHT22;36499;46.484;13.832;2023-03-11T11:33:53;13.90;49.10
12470;DHT22;36499;46.484;13.832;2023-03-11T11:36:24;14.10;52.20
12470;DHT22;36499;46.484;13.832;2023-03-11T11:38:56;14.30;49.90
12470;DHT22;36499;46.484;13.832;2023-03-11T11:41:28;14.10;47.90
12470;DHT22;36499;46.484;13.832;2023-03-11T11:44:00;13.70;46.80
12470;DHT22;36499;46.484;13.832;2023-03-11T11:46:33;13.60;47.10
12470;DHT22;36499;46.484;13.832;2023-03-11T11:49:12;13.60;46.50
12470;DHT22;36499;46.484;13.832;2023-03-11T11:51:48;13.90;50.40
12470;DHT22;36499;46.484;13.832;2023-03-11T11:54:25;14.20;47.90
12470;DHT22;36499;46.484;13.832;2023-03-11T11:56:57;14.50;46.80
12470;DHT22;36499;46.484;13.832;2023-03-11T11:59:26;14.50;47.60
12470;DHT22;36499;46.484;13.832;2023-03-11T12:02:05;14.70;45.40
12470;DHT22;36499;46.484;13.832;2023-03-11T12:04:49;14.90;47.30
12470;DHT22;36499;46.484;13.832;2023-03-11T12:07:54;15.00;46.70
12470;DHT22;36499;46.484;13.832;2023-03-11T12:10:37;15.20;45.70
12470;DHT22;36499;46.484;13.832;2023-03-11T12:16:30;15.00;44.80
12470;DHT22;36499;46.484;13.832;2023-03-11T12:19:14;14.60;43.20
12470;DHT22;36499;46.484;13.832;2023-03-11T12:22:02;14.20;44.30
12470;DHT22;36499;46.484;13.832;2023-03-11T12:28:00;14.10;46.70
12470;DHT22;36499;46.484;13.832;2023-03-11T12:30:42;14.50;47.50
12470;DHT22;36499;46.484;13.832;2023-03-11T12:33:15;14.90;46.00
12470;DHT22;36499;46.484;13.832;2023-03-11T12:35:51;15.30;45.20
12470;DHT22;36499;46.484;13.832;2023-03-11T12:38:26;15.60;45.20
12470;DHT22;36499;46.484;13.832;2023-03-11T12:41:03;15.80;47.50
12470;DHT22;36499;46.484;13.832;2023-03-11T12:47:19;15.90;49.10
12470;DHT22;36499;46.484;13.832;2023-03-11T12:49:49;15.90;54.80
12470;DHT22;36499;46.484;13.832;2023-03-11T12:52:27;16.10;55.60
12470;DHT22;36499;46.484;13.832;2023-03-11T12:58:38;15.80;51.10
12470;DHT22;36499;46.484;13.832;2023-03-11T13:01:43;15.60;53.30
12470;DHT22;36499;46.484;13.832;2023-03-11T13:04:29;15.60;52.60
12470;DHT22;36499;46.484;13.832;2023-03-11T13:07:39;15.60;53.20
12470;DHT22;36499;46.484;13.832;2023-03-11T13:10:16;15.50;53.90
12470;DHT22;36499;46.484;13.832;2023-03-11T13:12:47;15.40;53.60
12470;DHT22;36499;46.484;13.832;2023-03-11T13:15:33;15.20;54.80
12470;DHT22;36499;46.484;13.832;2023-03-11T13:18:14;15.30;56.70
12470;DHT22;36499;46.484;13.832;2023-03-11T13:20:52;15.40;56.70
12470;DHT22;36499;46.484;13.832;2023-03-11T13:23:34;15.30;57.40
12470;DHT22;36499;46.484;13.832;2023-03-11T13:26:28;15.20;58.70
12470;DHT22;36499;46.484;13.832;2023-03-11T13:29:28;15.30;59.60
12470;DHT22;36499;46.484;13.832;2023-03-11T13:35:34;15.30;58.40
12470;DHT22;36499;46.484;13.832;2023-03-11T13:38:30;15.30;59.80
12470;DHT22;36499;46.484;13.832;2023-03-11T13:41:25;15.30;57.50
12470;DHT22;36499;46.484;13.832;2023-03-11T13:43:59;15.40;58.40
12470;DHT22;36499;46.484;13.832;2023-03-11T13:46:39;15.60;59.10
12470;DHT22;36499;46.484;13.832;2023-03-11T13:49:25;15.60;58.20
12470;DHT22;36499;46.484;13.832;2023-03-11T13:52:00;15.60;58.00
12470;DHT22;36499;46.484;13.832;2023-03-11T13:54:34;15.70;59.20
12470;DHT22;36499;46.484;13.832;2023-03-11T13:57:17;15.40;58.10
12470;DHT22;36499;46.484;13.832;2023-03-11T13:59:51;15.40;56.90
12470;DHT22;36499;46.484;13.832;2023-03-11T14:02:22;15.10;57.10
12470;DHT22;36499;46.484;13.832;2023-03-11T14:04:54;15.00;58.80
12470;DHT22;36499;46.484;13.832;2023-03-11T14:07:27;14.90;59.00
12470;DHT22;36499;46.484;13.832;2023-03-11T14:10:22;15.00;57.70
12470;DHT22;36499;46.484;13.832;2023-03-11T14:12:55;14.90;58.80
12470;DHT22;36499;46.484;13.832;2023-03-11T14:15:39;14.90;58.90
12470;DHT22;36499;46.484;13.832;2023-03-11T14:18:41;14.70;58.60
12470;DHT22;36499;46.484;13.832;2023-03-11T14:21:13;14.80;58.40
12470;DHT22;36499;46.484;13.832;2023-03-11T14:23:45;15.00;59.10
12470;DHT22;36499;46.484;13.832;2023-03-11T14:26:16;14.90;58.90
12470;DHT22;36499;46.484;13.832;2023-03-11T14:28:48;14.90;56.90
12470;DHT22;36499;46.484;13.832;2023-03-11T14:31:23;14.90;56.80
12470;DHT22;36499;46.484;13.832;2023-03-11T14:33:56;14.90;56.80
12470;DHT22;36499;46.484;13.832;2023-03-11T14:36:29;14.90;57.60
12470;DHT22;36499;46.484;13.832;2023-03-11T14:38:58;14.80;58.50
12470;DHT22;36499;46.484;13.832;2023-03-11T14:41:25;14.60;62.00
12470;DHT22;36499;46.484;13.832;2023-03-11T14:43:54;14.50;63.20
12470;DHT22;36499;46.484;13.832;2023-03-11T14:46:24;14.60;61.90
12470;DHT22;36499;46.484;13.832;2023-03-11T14:48:55;14.50;60.70
12470;DHT22;36499;46.484;13.832;2023-03-11T14:51:27;14.50;60.90
12470;DHT22;36499;46.484;13.832;2023-03-11T14:54:05;14.40;63.00
12470;DHT22;36499;46.484;13.832;2023-03-11T14:56:45;14.20;64.90
12470;DHT22;36499;46.484;13.832;2023-03-11T14:59:20;13.90;66.30
12470;DHT22;36499;46.484;13.832;2023-03-11T15:01:53;13.80;68.10
12470;DHT22;36499;46.484;13.832;2023-03-11T15:04:28;13.70;68.30
12470;DHT22;36499;46.484;13.832;2023-03-11T15:06:59;13.60;69.10
12470;DHT22;36499;46.484;13.832;2023-03-11T15:09:31;13.40;68.90
12470;DHT22;36499;46.484;13.832;2023-03-11T15:12:00;13.20;70.30
12470;DHT22;36499;46.484;13.832;2023-03-11T15:14:31;13.10;70.70
12470;DHT22;36499;46.484;13.832;2023-03-11T15:17:09;12.80;70.60
12470;DHT22;36499;46.484;13.832;2023-03-11T15:19:41;12.60;72.90
12470;DHT22;36499;46.484;13.832;2023-03-11T15:22:23;12.40;73.00
12470;DHT22;36499;46.484;13.832;2023-03-11T15:24:54;12.20;73.80
12470;DHT22;36499;46.484;13.832;2023-03-11T15:27:28;12.10;74.00
12470;DHT22;36499;46.484;13.832;2023-03-11T15:29:57;12.00;74.80
12470;DHT22;36499;46.484;13.832;2023-03-11T15:32:37;11.90;75.00
12470;DHT22;36499;46.484;13.832;2023-03-11T15:35:15;11.70;75.80
12470;DHT22;36499;46.484;13.832;2023-03-11T15:37:45;11.60;76.40
12470;DHT22;36499;46.484;13.832;2023-03-11T15:40:21;11.40;76.60
12470;DHT22;36499;46.484;13.832;2023-03-11T15:43:15;11.30;78.20
12470;DHT22;36499;46.484;13.832;2023-03-11T15:45:46;11.20;78.60
12470;DHT22;36499;46.484;13.832;2023-03-11T15:48:13;11.10;79.70
12470;DHT22;36499;46.484;13.832;2023-03-11T15:50:46;11.00;80.20
12470;DHT22;36499;46.484;13.832;2023-03-11T15:53:14;10.80;81.00
12470;DHT22;36499;46.484;13.832;2023-03-11T15:55:43;10.70;81.30
12470;DHT22;36499;46.484;13.832;2023-03-11T15:58:14;10.60;82.20
12470;DHT22;36499;46.484;13.832;2023-03-11T16:00:46;10.40;82.90
12470;DHT22;36499;46.484;13.832;2023-03-11T16:03:14;10.40;83.50
12470;DHT22;36499;46.484;13.832;2023-03-11T16:05:42;10.40;84.50
12470;DHT22;36499;46.484;13.832;2023-03-11T16:08:09;10.20;85.10
12470;DHT22;36499;46.484;13.832;2023-03-11T16:10:36;10.10;86.20